sensor_id;sensor_type;location;lat;lon;timestamp;pressure;altitude;pressure_sealevel;temperature
69186;BMP280;56298;49.246;9.410;2023-02-22T00:00:23;99396.69;;;3.74
69186;BMP280;56298;49.246;9.410;2023-02-22T00:03:16;99397.69;;;3.78
69186;BMP280;56298;49.246;9.410;2023-02-22T00:05:43;99402.59;;;3.76
69186;BMP280;56298;49.246;9.410;2023-02-22T00:08:13;99394.75;;;3.61
69186;BMP280;56298;49.246;9.410;2023-02-22T00:10:39;99398.28;;;3.47
69186;BMP280;56298;49.246;9.410;2023-02-22T00:13:06;99390.25;;;3.42
69186;BMP280;56298;49.246;9.410;2023-02-22T00:15:32;99391.84;;;3.43
69186;BMP280;56298;49.246;9.410;2023-02-22T00:17:58;99389.13;;;3.43
69186;BMP280;56298;49.246;9.410;2023-02-22T00:20:24;99387.13;;;3.63
69186;BMP280;56298;49.246;9.410;2023-02-22T00:22:49;99389.13;;;3.71
69186;BMP280;56298;49.246;9.410;2023-02-22T00:25:17;99393.97;;;3.74
69186;BMP280;56298;49.246;9.410;2023-02-22T00:27:44;99395.47;;;3.80
69186;BMP280;56298;49.246;9.410;2023-02-22T00:30:14;99388.84;;;3.72
69186;BMP280;56298;49.246;9.410;2023-02-22T00:32:43;99384.84;;;3.56
69186;BMP280;56298;49.246;9.410;2023-02-22T00:35:09;99391.84;;;3.71
69186;BMP280;56298;49.246;9.410;2023-02-22T00:37:34;99383.09;;;3.60
69186;BMP280;56298;49.246;9.410;2023-02-22T00:40:00;99384.72;;;3.47
69186;BMP280;56298;49.246;9.410;2023-02-22T00:42:25;99381.22;;;3.47
69186;BMP280;56298;49.246;9.410;2023-02-22T00:44:50;99382.22;;;3.51
69186;BMP280;56298;49.246;9.410;2023-02-22T00:47:16;99381.00;;;3.57
69186;BMP280;56298;49.246;9.410;2023-02-22T00:49:41;99380.38;;;3.60
69186;BMP280;56298;49.246;9.410;2023-02-22T00:52:06;99377.50;;;3.56
69186;BMP280;56298;49.246;9.410;2023-02-22T00:54:33;99371.88;;;3.53
69186;BMP280;56298;49.246;9.410;2023-02-22T00:56:58;99368.16;;;3.49
69186;BMP280;56298;49.246;9.410;2023-02-22T00:59:24;99369.09;;;3.44
69186;BMP280;56298;49.246;9.410;2023-02-22T01:01:49;99364.63;;;3.34
69186;BMP280;56298;49.246;9.410;2023-02-22T01:04:14;99359.63;;;3.27
69186;BMP280;56298;49.246;9.410;2023-02-22T01:06:39;99372.09;;;3.28
69186;BMP280;56298;49.246;9.410;2023-02-22T01:09:05;99365.16;;;3.22
69186;BMP280;56298;49.246;9.410;2023-02-22T01:11:32;99355.38;;;3.07
69186;BMP280;56298;49.246;9.410;2023-02-22T01:13:57;99358.59;;;2.95
69186;BMP280;56298;49.246;9.410;2023-02-22T01:16:24;99356.28;;;2.88
69186;BMP280;56298;49.246;9.410;2023-02-22T01:18:49;99349.63;;;2.81
69186;BMP280;56298;49.246;9.410;2023-02-22T01:21:14;99345.81;;;2.82
69186;BMP280;56298;49.246;9.410;2023-02-22T01:23:40;99343.09;;;2.82
69186;BMP280;56298;49.246;9.410;2023-02-22T01:26:05;99344.75;;;2.83
69186;BMP280;56298;49.246;9.410;2023-02-22T01:28:31;99340.69;;;2.80
69186;BMP280;56298;49.246;9.410;2023-02-22T01:30:56;99345.41;;;2.74
69186;BMP280;56298;49.246;9.410;2023-02-22T01:33:22;99335.28;;;2.80
69186;BMP280;56298;49.246;9.410;2023-02-22T01:35:47;99334.78;;;2.78
69186;BMP280;56298;49.246;9.410;2023-02-22T01:38:15;99336.28;;;2.84
69186;BMP280;56298;49.246;9.410;2023-02-22T01:40:45;99336.38;;;2.79
69186;BMP280;56298;49.246;9.410;2023-02-22T01:43:23;99329.72;;;2.90
69186;BMP280;56298;49.246;9.410;2023-02-22T01:45:59;99329.53;;;3.01
69186;BMP280;56298;49.246;9.410;2023-02-22T01:51:05;99318.56;;;3.06
69186;BMP280;56298;49.246;9.410;2023-02-22T01:53:38;99329.69;;;3.04
69186;BMP280;56298;49.246;9.410;2023-02-22T01:56:04;99313.22;;;2.87
69186;BMP280;56298;49.246;9.410;2023-02-22T01:58:32;99319.47;;;2.87
69186;BMP280;56298;49.246;9.410;2023-02-22T02:00:59;99321.78;;;2.94
69186;BMP280;56298;49.246;9.410;2023-02-22T02:03:28;99314.25;;;3.05
69186;BMP280;56298;49.246;9.410;2023-02-22T02:05:57;99319.00;;;3.13
69186;BMP280;56298;49.246;9.410;2023-02-22T02:11:15;99315.78;;;3.25
69186;BMP280;56298;49.246;9.410;2023-02-22T02:13:40;99311.97;;;3.26
69186;BMP280;56298;49.246;9.410;2023-02-22T02:16:06;99307.16;;;3.23
69186;BMP280;56298;49.246;9.410;2023-02-22T02:18:31;99314.56;;;3.17
69186;BMP280;56298;49.246;9.410;2023-02-22T02:21:32;99301.94;;;3.13
69186;BMP280;56298;49.246;9.410;2023-02-22T02:24:32;99307.94;;;3.10
69186;BMP280;56298;49.246;9.410;2023-02-22T02:32:51;99296.00;;;2.97
69186;BMP280;56298;49.246;9.410;2023-02-22T02:35:27;99294.28;;;2.87
69186;BMP280;56298;49.246;9.410;2023-02-22T02:37:58;99285.66;;;2.85
69186;BMP280;56298;49.246;9.410;2023-02-22T02:40:37;99285.16;;;2.69
69186;BMP280;56298;49.246;9.410;2023-02-22T02:43:14;99282.53;;;2.63
69186;BMP280;56298;49.246;9.410;2023-02-22T02:45:49;99282.09;;;2.56
69186;BMP280;56298;49.246;9.410;2023-02-22T02:48:16;99271.59;;;2.55
69186;BMP280;56298;49.246;9.410;2023-02-22T02:50:47;99273.28;;;2.50
69186;BMP280;56298;49.246;9.410;2023-02-22T02:53:17;99269.63;;;2.41
69186;BMP280;56298;49.246;9.410;2023-02-22T02:55:44;99267.44;;;2.43
69186;BMP280;56298;49.246;9.410;2023-02-22T02:58:16;99262.31;;;2.42
69186;BMP280;56298;49.246;9.410;2023-02-22T03:00:41;99264.31;;;2.36
69186;BMP280;56298;49.246;9.410;2023-02-22T03:11:17;99249.50;;;2.33
69186;BMP280;56298;49.246;9.410;2023-02-22T03:16:25;99248.09;;;2.50
69186;BMP280;56298;49.246;9.410;2023-02-22T03:19:06;99249.94;;;2.55
69186;BMP280;56298;49.246;9.410;2023-02-22T03:29:50;99246.22;;;2.64
69186;BMP280;56298;49.246;9.410;2023-02-22T03:32:22;99244.34;;;2.65
69186;BMP280;56298;49.246;9.410;2023-02-22T03:34:53;99242.41;;;2.65
69186;BMP280;56298;49.246;9.410;2023-02-22T03:37:25;99245.13;;;2.65
69186;BMP280;56298;49.246;9.410;2023-02-22T03:39:54;99244.06;;;2.67
69186;BMP280;56298;49.246;9.410;2023-02-22T03:42:23;99242.13;;;2.67
69186;BMP280;56298;49.246;9.410;2023-02-22T03:44:51;99241.84;;;2.69
69186;BMP280;56298;49.246;9.410;2023-02-22T03:47:22;99249.84;;;2.60
69186;BMP280;56298;49.246;9.410;2023-02-22T03:50:00;99244.34;;;2.65
69186;BMP280;56298;49.246;9.410;2023-02-22T03:52:32;99245.00;;;2.71
69186;BMP280;56298;49.246;9.410;2023-02-22T03:54:59;99248.53;;;2.71
69186;BMP280;56298;49.246;9.410;2023-02-22T03:57:27;99244.84;;;2.67
69186;BMP280;56298;49.246;9.410;2023-02-22T03:59:53;99241.50;;;2.70
69186;BMP280;56298;49.246;9.410;2023-02-22T04:02:18;99245.00;;;2.71
69186;BMP280;56298;49.246;9.410;2023-02-22T04:04:47;99240.81;;;2.64
69186;BMP280;56298;49.246;9.410;2023-02-22T04:07:12;99236.41;;;2.55
69186;BMP280;56298;49.246;9.410;2023-02-22T04:09:37;99237.28;;;2.50
69186;BMP280;56298;49.246;9.410;2023-02-22T04:12:03;99230.34;;;2.44
69186;BMP280;56298;49.246;9.410;2023-02-22T04:14:28;99236.25;;;2.46
69186;BMP280;56298;49.246;9.410;2023-02-22T04:16:54;99236.66;;;2.39
69186;BMP280;56298;49.246;9.410;2023-02-22T04:19:19;99231.16;;;2.30
69186;BMP280;56298;49.246;9.410;2023-02-22T04:21:45;99230.13;;;2.26
69186;BMP280;56298;49.246;9.410;2023-02-22T04:24:10;99234.50;;;2.22
69186;BMP280;56298;49.246;9.410;2023-02-22T04:26:36;99226.94;;;2.24
69186;BMP280;56298;49.246;9.410;2023-02-22T04:29:01;99238.81;;;2.23
69186;BMP280;56298;49.246;9.410;2023-02-22T04:31:26;99226.97;;;2.19
69186;BMP280;56298;49.246;9.410;2023-02-22T04:33:51;99227.81;;;2.19
69186;BMP280;56298;49.246;9.410;2023-02-22T04:36:17;99224.88;;;2.16
69186;BMP280;56298;49.246;9.410;2023-02-22T04:38:42;99227.38;;;2.12
69186;BMP280;56298;49.246;9.410;2023-02-22T04:41:08;99219.84;;;2.09
69186;BMP280;56298;49.246;9.410;2023-02-22T04:43:33;99225.75;;;2.11
69186;BMP280;56298;49.246;9.410;2023-02-22T04:45:59;99218.75;;;2.10
69186;BMP280;56298;49.246;9.410;2023-02-22T04:48:24;99216.63;;;2.07
69186;BMP280;56298;49.246;9.410;2023-02-22T04:50:49;99227.38;;;2.12
69186;BMP280;56298;49.246;9.410;2023-02-22T04:53:16;99224.88;;;2.16
69186;BMP280;56298;49.246;9.410;2023-02-22T04:55:41;99219.47;;;2.16
69186;BMP280;56298;49.246;9.410;2023-02-22T04:58:06;99212.53;;;2.09
69186;BMP280;56298;49.246;9.410;2023-02-22T05:00:31;99207.84;;;2.15
69186;BMP280;56298;49.246;9.410;2023-02-22T05:02:57;99207.25;;;2.18
69186;BMP280;56298;49.246;9.410;2023-02-22T05:05:22;99216.91;;;2.24
69186;BMP280;56298;49.246;9.410;2023-02-22T05:07:48;99212.00;;;2.27
69186;BMP280;56298;49.246;9.410;2023-02-22T05:10:14;99205.06;;;2.20
69186;BMP280;56298;49.246;9.410;2023-02-22T05:12:39;99207.75;;;2.20
69186;BMP280;56298;49.246;9.410;2023-02-22T05:15:06;99205.06;;;2.20
69186;BMP280;56298;49.246;9.410;2023-02-22T05:17:32;99205.66;;;2.17
69186;BMP280;56298;49.246;9.410;2023-02-22T05:19:57;99198.13;;;2.14
69186;BMP280;56298;49.246;9.410;2023-02-22T05:22:22;99212.53;;;2.09
69186;BMP280;56298;49.246;9.410;2023-02-22T05:24:48;99198.59;;;2.02
69186;BMP280;56298;49.246;9.410;2023-02-22T05:27:16;99199.47;;;1.97
69186;BMP280;56298;49.246;9.410;2023-02-22T05:29:41;99204.38;;;1.95
69186;BMP280;56298;49.246;9.410;2023-02-22T05:32:07;99205.47;;;1.94
69186;BMP280;56298;49.246;9.410;2023-02-22T05:34:32;99204.88;;;1.97
69186;BMP280;56298;49.246;9.410;2023-02-22T05:36:57;99201.38;;;1.97
69186;BMP280;56298;49.246;9.410;2023-02-22T05:39:22;99204.94;;;1.92
69186;BMP280;56298;49.246;9.410;2023-02-22T05:41:48;99199.66;;;1.87
69186;BMP280;56298;49.246;9.410;2023-02-22T05:44:13;99201.03;;;1.84
69186;BMP280;56298;49.246;9.410;2023-02-22T05:46:39;99195.84;;;1.88
69186;BMP280;56298;49.246;9.410;2023-02-22T05:49:04;99200.00;;;1.80
69186;BMP280;56298;49.246;9.410;2023-02-22T05:51:29;99199.16;;;1.85
69186;BMP280;56298;49.246;9.410;2023-02-22T05:53:55;99205.75;;;1.93
69186;BMP280;56298;49.246;9.410;2023-02-22T05:56:22;99201.03;;;1.84
69186;BMP280;56298;49.246;9.410;2023-02-22T05:58:47;99199.53;;;1.78
69186;BMP280;56298;49.246;9.410;2023-02-22T06:01:13;99201.78;;;1.71
69186;BMP280;56298;49.246;9.410;2023-02-22T06:03:38;99200.69;;;1.72
69186;BMP280;56298;49.246;9.410;2023-02-22T06:06:03;99197.59;;;1.79
69186;BMP280;56298;49.246;9.410;2023-02-22T06:08:29;99202.88;;;1.89
69186;BMP280;56298;49.246;9.410;2023-02-22T06:10:54;99202.78;;;1.94
69186;BMP280;56298;49.246;9.410;2023-02-22T06:13:20;99206.69;;;2.02
69186;BMP280;56298;49.246;9.410;2023-02-22T06:15:45;99199.63;;;2.06
69186;BMP280;56298;49.246;9.410;2023-02-22T06:18:10;99207.00;;;2.01
69186;BMP280;56298;49.246;9.410;2023-02-22T06:20:35;99206.50;;;1.98
69186;BMP280;56298;49.246;9.410;2023-02-22T06:23:01;99211.81;;;2.04
69186;BMP280;56298;49.246;9.410;2023-02-22T06:25:28;99206.63;;;2.07
69186;BMP280;56298;49.246;9.410;2023-02-22T06:27:55;99210.69;;;2.24
69186;BMP280;56298;49.246;9.410;2023-02-22T06:30:23;99213.47;;;2.19
69186;BMP280;56298;49.246;9.410;2023-02-22T06:32:48;99212.22;;;2.30
69186;BMP280;56298;49.246;9.410;2023-02-22T06:35:14;99214.00;;;2.35
69186;BMP280;56298;49.246;9.410;2023-02-22T06:37:40;99222.75;;;2.46
69186;BMP280;56298;49.246;9.410;2023-02-22T06:40:05;99215.00;;;2.39
69186;BMP280;56298;49.246;9.410;2023-02-22T06:42:31;99219.56;;;2.58
69186;BMP280;56298;49.246;9.410;2023-02-22T06:44:57;99233.38;;;2.70
69186;BMP280;56298;49.246;9.410;2023-02-22T06:47:22;99228.31;;;2.83
69186;BMP280;56298;49.246;9.410;2023-02-22T06:49:54;99236.91;;;2.99
69186;BMP280;56298;49.246;9.410;2023-02-22T06:52:20;99230.88;;;3.02
69186;BMP280;56298;49.246;9.410;2023-02-22T06:54:47;99239.31;;;3.14
69186;BMP280;56298;49.246;9.410;2023-02-22T06:57:12;99247.16;;;3.16
69186;BMP280;56298;49.246;9.410;2023-02-22T06:59:37;99246.44;;;3.10
69186;BMP280;56298;49.246;9.410;2023-02-22T07:02:02;99238.19;;;3.29
69186;BMP280;56298;49.246;9.410;2023-02-22T07:04:28;99247.00;;;3.35
69186;BMP280;56298;49.246;9.410;2023-02-22T07:06:53;99254.31;;;3.49
69186;BMP280;56298;49.246;9.410;2023-02-22T07:09:18;99252.81;;;3.56
69186;BMP280;56298;49.246;9.410;2023-02-22T07:11:44;99252.97;;;3.60
69186;BMP280;56298;49.246;9.410;2023-02-22T07:14:09;99249.66;;;3.63
69186;BMP280;56298;49.246;9.410;2023-02-22T07:16:35;99254.97;;;3.68
69186;BMP280;56298;49.246;9.410;2023-02-22T07:19:00;99256.84;;;3.82
69186;BMP280;56298;49.246;9.410;2023-02-22T07:21:26;99259.94;;;3.89
69186;BMP280;56298;49.246;9.410;2023-02-22T07:23:52;99267.44;;;3.92
69186;BMP280;56298;49.246;9.410;2023-02-22T07:26:18;99260.59;;;4.18
69186;BMP280;56298;49.246;9.410;2023-02-22T07:28:44;99262.56;;;4.26
69186;BMP280;56298;49.246;9.410;2023-02-22T07:31:09;99257.25;;;4.44
69186;BMP280;56298;49.246;9.410;2023-02-22T07:33:34;99259.13;;;4.66
69186;BMP280;56298;49.246;9.410;2023-02-22T07:35:59;99258.88;;;4.85
69186;BMP280;56298;49.246;9.410;2023-02-22T07:38:25;99260.44;;;4.86
69186;BMP280;56298;49.246;9.410;2023-02-22T07:40:50;99263.69;;;5.06
69186;BMP280;56298;49.246;9.410;2023-02-22T07:43:20;99264.88;;;5.31
69186;BMP280;56298;49.246;9.410;2023-02-22T07:45:47;99269.06;;;5.46
69186;BMP280;56298;49.246;9.410;2023-02-22T07:48:14;99269.06;;;5.64
69186;BMP280;56298;49.246;9.410;2023-02-22T07:50:39;99269.53;;;6.01
69186;BMP280;56298;49.246;9.410;2023-02-22T07:53:10;99271.44;;;6.10
69186;BMP280;56298;49.246;9.410;2023-02-22T07:55:36;99264.16;;;6.40
69186;BMP280;56298;49.246;9.410;2023-02-22T07:58:03;99265.28;;;6.31
69186;BMP280;56298;49.246;9.410;2023-02-22T08:00:35;99265.09;;;6.45
69186;BMP280;56298;49.246;9.410;2023-02-22T08:03:02;99264.22;;;6.62
69186;BMP280;56298;49.246;9.410;2023-02-22T08:05:29;99270.63;;;6.66
69186;BMP280;56298;49.246;9.410;2023-02-22T08:07:55;99266.94;;;6.62
69186;BMP280;56298;49.246;9.410;2023-02-22T08:10:21;99261.69;;;6.56
69186;BMP280;56298;49.246;9.410;2023-02-22T08:12:47;99272.34;;;6.79
69186;BMP280;56298;49.246;9.410;2023-02-22T08:15:17;99266.41;;;7.07
69186;BMP280;56298;49.246;9.410;2023-02-22T08:17:42;99273.31;;;7.05
69186;BMP280;56298;49.246;9.410;2023-02-22T08:20:08;99266.31;;;7.25
69186;BMP280;56298;49.246;9.410;2023-02-22T08:22:33;99272.72;;;7.63
69186;BMP280;56298;49.246;9.410;2023-02-22T08:24:59;99264.94;;;7.74
69186;BMP280;56298;49.246;9.410;2023-02-22T08:27:26;99271.25;;;7.65
69186;BMP280;56298;49.246;9.410;2023-02-22T08:29:52;99265.50;;;8.01
69186;BMP280;56298;49.246;9.410;2023-02-22T08:32:17;99267.41;;;8.00
69186;BMP280;56298;49.246;9.410;2023-02-22T08:34:46;99267.94;;;8.40
69186;BMP280;56298;49.246;9.410;2023-02-22T08:37:15;99269.09;;;8.39
69186;BMP280;56298;49.246;9.410;2023-02-22T08:39:40;99260.44;;;8.74
69186;BMP280;56298;49.246;9.410;2023-02-22T08:42:06;99254.97;;;8.74
69186;BMP280;56298;49.246;9.410;2023-02-22T08:44:33;99262.84;;;8.75
69186;BMP280;56298;49.246;9.410;2023-02-22T08:46:59;99259.09;;;8.80
69186;BMP280;56298;49.246;9.410;2023-02-22T08:49:24;99262.72;;;8.97
69186;BMP280;56298;49.246;9.410;2023-02-22T08:51:49;99250.28;;;8.74
69186;BMP280;56298;49.246;9.410;2023-02-22T08:54:15;99247.03;;;8.69
69186;BMP280;56298;49.246;9.410;2023-02-22T08:56:41;99250.44;;;8.66
69186;BMP280;56298;49.246;9.410;2023-02-22T08:59:07;99255.09;;;8.53
69186;BMP280;56298;49.246;9.410;2023-02-22T09:01:32;99250.88;;;8.68
69186;BMP280;56298;49.246;9.410;2023-02-22T09:03:58;99256.69;;;8.66
69186;BMP280;56298;49.246;9.410;2023-02-22T09:06:24;99250.66;;;8.48
69186;BMP280;56298;49.246;9.410;2023-02-22T09:08:49;99249.59;;;8.40
69186;BMP280;56298;49.246;9.410;2023-02-22T09:11:15;99241.75;;;8.88
69186;BMP280;56298;49.246;9.410;2023-02-22T09:13:40;99245.81;;;9.07
69186;BMP280;56298;49.246;9.410;2023-02-22T09:16:05;99239.13;;;9.33
69186;BMP280;56298;49.246;9.410;2023-02-22T09:18:31;99242.44;;;9.67
69186;BMP280;56298;49.246;9.410;2023-02-22T09:20:56;99240.97;;;9.86
69186;BMP280;56298;49.246;9.410;2023-02-22T09:23:22;99237.97;;;10.07
69186;BMP280;56298;49.246;9.410;2023-02-22T09:25:48;99238.66;;;10.36
69186;BMP280;56298;49.246;9.410;2023-02-22T09:28:13;99239.22;;;10.26
69186;BMP280;56298;49.246;9.410;2023-02-22T09:30:39;99227.44;;;10.41
69186;BMP280;56298;49.246;9.410;2023-02-22T09:33:10;99229.63;;;10.52
69186;BMP280;56298;49.246;9.410;2023-02-22T09:35:40;99232.88;;;10.74
69186;BMP280;56298;49.246;9.410;2023-02-22T09:38:14;99231.19;;;10.69
69186;BMP280;56298;49.246;9.410;2023-02-22T09:40:42;99224.59;;;10.90
69186;BMP280;56298;49.246;9.410;2023-02-22T09:43:19;99225.00;;;10.72
69186;BMP280;56298;49.246;9.410;2023-02-22T09:45:56;99232.31;;;10.84
69186;BMP280;56298;49.246;9.410;2023-02-22T09:48:26;99227.41;;;11.13
69186;BMP280;56298;49.246;9.410;2023-02-22T09:50:57;99219.59;;;11.35
69186;BMP280;56298;49.246;9.410;2023-02-22T09:53:33;99224.47;;;11.65
69186;BMP280;56298;49.246;9.410;2023-02-22T09:56:07;99221.88;;;11.95
69186;BMP280;56298;49.246;9.410;2023-02-22T09:58:39;99221.44;;;11.93
69186;BMP280;56298;49.246;9.410;2023-02-22T10:01:32;99225.88;;;12.02
69186;BMP280;56298;49.246;9.410;2023-02-22T10:06:28;99224.06;;;12.36
69186;BMP280;56298;49.246;9.410;2023-02-22T10:08:57;99221.38;;;12.40
69186;BMP280;56298;49.246;9.410;2023-02-22T10:17:12;99220.59;;;12.70
69186;BMP280;56298;49.246;9.410;2023-02-22T10:19:58;99212.59;;;12.88
69186;BMP280;56298;49.246;9.410;2023-02-22T10:22:44;99211.97;;;12.41
69186;BMP280;56298;49.246;9.410;2023-02-22T10:25:17;99203.28;;;12.66
69186;BMP280;56298;49.246;9.410;2023-02-22T10:27:47;99210.56;;;12.54
69186;BMP280;56298;49.246;9.410;2023-02-22T10:30:20;99205.13;;;12.58
69186;BMP280;56298;49.246;9.410;2023-02-22T10:33:07;99193.50;;;12.72
69186;BMP280;56298;49.246;9.410;2023-02-22T10:35:36;99198.56;;;12.66
69186;BMP280;56298;49.246;9.410;2023-02-22T10:38:22;99199.75;;;12.96
69186;BMP280;56298;49.246;9.410;2023-02-22T10:43:18;99188.22;;;13.24
69186;BMP280;56298;49.246;9.410;2023-02-22T10:45:44;99188.22;;;13.24
69186;BMP280;56298;49.246;9.410;2023-02-22T10:48:12;99176.97;;;13.37
69186;BMP280;56298;49.246;9.410;2023-02-22T10:50:41;99178.78;;;13.25
69186;BMP280;56298;49.246;9.410;2023-02-22T10:53:08;99174.81;;;13.61
69186;BMP280;56298;49.246;9.410;2023-02-22T10:55:34;99174.31;;;13.51
69186;BMP280;56298;49.246;9.410;2023-02-22T10:58:03;99178.13;;;13.85
69186;BMP280;56298;49.246;9.410;2023-02-22T11:02:58;99173.72;;;14.32
69186;BMP280;56298;49.246;9.410;2023-02-22T11:05:36;99175.41;;;14.55
69186;BMP280;56298;49.246;9.410;2023-02-22T11:08:22;99168.41;;;14.79
69186;BMP280;56298;49.246;9.410;2023-02-22T11:10:55;99167.63;;;14.82
69186;BMP280;56298;49.246;9.410;2023-02-22T11:16:00;99156.22;;;14.95
69186;BMP280;56298;49.246;9.410;2023-02-22T11:18:31;99151.91;;;15.16
69186;BMP280;56298;49.246;9.410;2023-02-22T11:21:10;99155.91;;;15.36
69186;BMP280;56298;49.246;9.410;2023-02-22T11:23:40;99155.53;;;15.67
69186;BMP280;56298;49.246;9.410;2023-02-22T11:26:18;99146.78;;;15.90
69186;BMP280;56298;49.246;9.410;2023-02-22T11:28:50;99155.09;;;15.90
69186;BMP280;56298;49.246;9.410;2023-02-22T11:31:27;99144.41;;;15.96
69186;BMP280;56298;49.246;9.410;2023-02-22T11:33:55;99142.41;;;15.96
69186;BMP280;56298;49.246;9.410;2023-02-22T11:36:33;99139.88;;;16.42
69186;BMP280;56298;49.246;9.410;2023-02-22T11:39:02;99136.72;;;16.44
69186;BMP280;56298;49.246;9.410;2023-02-22T11:41:31;99141.16;;;16.19
69186;BMP280;56298;49.246;9.410;2023-02-22T11:44:27;99134.84;;;16.19
69186;BMP280;56298;49.246;9.410;2023-02-22T11:46:54;99134.88;;;16.11
69186;BMP280;56298;49.246;9.410;2023-02-22T11:49:31;99134.06;;;16.18
69186;BMP280;56298;49.246;9.410;2023-02-22T11:52:21;99125.78;;;16.15
69186;BMP280;56298;49.246;9.410;2023-02-22T11:54:52;99128.13;;;16.20
69186;BMP280;56298;49.246;9.410;2023-02-22T11:57:33;99120.63;;;16.24
69186;BMP280;56298;49.246;9.410;2023-02-22T12:02:58;99125.31;;;16.34
69186;BMP280;56298;49.246;9.410;2023-02-22T12:05:38;99113.81;;;16.39
69186;BMP280;56298;49.246;9.410;2023-02-22T12:10:54;99109.94;;;16.22
69186;BMP280;56298;49.246;9.410;2023-02-22T12:13:28;99103.22;;;16.27
69186;BMP280;56298;49.246;9.410;2023-02-22T12:16:18;99103.94;;;16.38
69186;BMP280;56298;49.246;9.410;2023-02-22T12:21:30;99101.94;;;16.43
69186;BMP280;56298;49.246;9.410;2023-02-22T12:24:18;99098.81;;;16.37
69186;BMP280;56298;49.246;9.410;2023-02-22T12:26:48;99093.38;;;16.15
69186;BMP280;56298;49.246;9.410;2023-02-22T12:29:42;99091.34;;;16.19
69186;BMP280;56298;49.246;9.410;2023-02-22T12:34:37;99091.34;;;16.26
69186;BMP280;56298;49.246;9.410;2023-02-22T12:37:13;99091.72;;;16.29
69186;BMP280;56298;49.246;9.410;2023-02-22T12:42:55;99082.13;;;16.48
69186;BMP280;56298;49.246;9.410;2023-02-22T12:45:49;99082.19;;;16.40
69186;BMP280;56298;49.246;9.410;2023-02-22T12:48:36;99083.81;;;16.31
69186;BMP280;56298;49.246;9.410;2023-02-22T12:51:27;99077.75;;;16.54
69186;BMP280;56298;49.246;9.410;2023-02-22T12:54:11;99067.75;;;16.71
69186;BMP280;56298;49.246;9.410;2023-02-22T12:57:00;99069.16;;;16.97
69186;BMP280;56298;49.246;9.410;2023-02-22T12:59:38;99077.34;;;17.12
69186;BMP280;56298;49.246;9.410;2023-02-22T13:02:17;99076.19;;;17.06
69186;BMP280;56298;49.246;9.410;2023-02-22T13:04:44;99070.56;;;17.17
69186;BMP280;56298;49.246;9.410;2023-02-22T13:07:28;99067.66;;;17.35
69186;BMP280;56298;49.246;9.410;2023-02-22T13:15:35;99065.56;;;17.01
69186;BMP280;56298;49.246;9.410;2023-02-22T13:20:42;99059.47;;;17.20
69186;BMP280;56298;49.246;9.410;2023-02-22T13:23:24;99056.50;;;17.00
69186;BMP280;56298;49.246;9.410;2023-02-22T13:25:57;99055.34;;;16.90
69186;BMP280;56298;49.246;9.410;2023-02-22T13:28:42;99052.72;;;16.76
69186;BMP280;56298;49.246;9.410;2023-02-22T13:34:09;99048.56;;;16.42
69186;BMP280;56298;49.246;9.410;2023-02-22T13:37:07;99048.16;;;16.51
69186;BMP280;56298;49.246;9.410;2023-02-22T13:39:41;99045.34;;;16.47
69186;BMP280;56298;49.246;9.410;2023-02-22T13:42:34;99054.63;;;16.19
69186;BMP280;56298;49.246;9.410;2023-02-22T13:48:15;99046.91;;;15.66
69186;BMP280;56298;49.246;9.410;2023-02-22T13:51:05;99049.69;;;15.56
69186;BMP280;56298;49.246;9.410;2023-02-22T13:56:08;99041.03;;;15.17
69186;BMP280;56298;49.246;9.410;2023-02-22T13:58:46;99043.41;;;15.22
69186;BMP280;56298;49.246;9.410;2023-02-22T14:04:32;99043.41;;;15.15
69186;BMP280;56298;49.246;9.410;2023-02-22T14:07:00;99037.13;;;15.25
69186;BMP280;56298;49.246;9.410;2023-02-22T14:09:53;99044.59;;;15.21
69186;BMP280;56298;49.246;9.410;2023-02-22T14:15:13;99027.66;;;15.19
69186;BMP280;56298;49.246;9.410;2023-02-22T14:17:46;99032.75;;;15.17
69186;BMP280;56298;49.246;9.410;2023-02-22T14:22:42;99031.94;;;15.28
69186;BMP280;56298;49.246;9.410;2023-02-22T14:27:55;99030.38;;;15.45
69186;BMP280;56298;49.246;9.410;2023-02-22T14:30:27;99028.38;;;15.45
69186;BMP280;56298;49.246;9.410;2023-02-22T14:32:53;99032.75;;;15.50
69186;BMP280;56298;49.246;9.410;2023-02-22T14:35:19;99037.47;;;15.49
69186;BMP280;56298;49.246;9.410;2023-02-22T14:37:52;99032.69;;;15.61
69186;BMP280;56298;49.246;9.410;2023-02-22T14:40:25;99033.88;;;15.71
69186;BMP280;56298;49.246;9.410;2023-02-22T14:43:13;99042.16;;;15.63
69186;BMP280;56298;49.246;9.410;2023-02-22T14:45:46;99028.78;;;15.54
69186;BMP280;56298;49.246;9.410;2023-02-22T14:48:26;99035.06;;;15.59
69186;BMP280;56298;49.246;9.410;2023-02-22T14:50:58;99029.94;;;15.64
69186;BMP280;56298;49.246;9.410;2023-02-22T14:53:40;99027.19;;;15.61
69186;BMP280;56298;49.246;9.410;2023-02-22T14:56:14;99027.97;;;15.61
69186;BMP280;56298;49.246;9.410;2023-02-22T14:59:10;99022.47;;;15.47
69186;BMP280;56298;49.246;9.410;2023-02-22T15:01:37;99023.28;;;15.36
69186;BMP280;56298;49.246;9.410;2023-02-22T15:04:26;99030.78;;;15.29
69186;BMP280;56298;49.246;9.410;2023-02-22T15:06:53;99033.53;;;15.21
69186;BMP280;56298;49.246;9.410;2023-02-22T15:09:25;99023.28;;;15.18
69186;BMP280;56298;49.246;9.410;2023-02-22T15:12:25;99030.00;;;15.17
69186;BMP280;56298;49.246;9.410;2023-02-22T15:15:17;99028.81;;;15.04
69186;BMP280;56298;49.246;9.410;2023-02-22T15:17:53;99024.88;;;14.98
69186;BMP280;56298;49.246;9.410;2023-02-22T15:22:44;99027.63;;;14.90
69186;BMP280;56298;49.246;9.410;2023-02-22T15:25:10;99022.50;;;14.81
69186;BMP280;56298;49.246;9.410;2023-02-22T15:27:36;99028.38;;;14.69
69186;BMP280;56298;49.246;9.410;2023-02-22T15:30:08;99030.38;;;14.72
69186;BMP280;56298;49.246;9.410;2023-02-22T15:32:40;99028.00;;;14.63
69186;BMP280;56298;49.246;9.410;2023-02-22T15:35:25;99023.25;;;14.53
69186;BMP280;56298;49.246;9.410;2023-02-22T15:38:04;99027.16;;;14.48
69186;BMP280;56298;49.246;9.410;2023-02-22T15:40:31;99024.38;;;14.37
69186;BMP280;56298;49.246;9.410;2023-02-22T15:43:04;99019.69;;;14.34
69186;BMP280;56298;49.246;9.410;2023-02-22T15:45:32;99018.88;;;14.30
69186;BMP280;56298;49.246;9.410;2023-02-22T15:47:58;99019.63;;;14.16
69186;BMP280;56298;49.246;9.410;2023-02-22T15:50:26;99019.22;;;14.14
69186;BMP280;56298;49.246;9.410;2023-02-22T15:53:04;99021.53;;;14.08
69186;BMP280;56298;49.246;9.410;2023-02-22T15:55:36;99013.66;;;14.10
69186;BMP280;56298;49.246;9.410;2023-02-22T16:00:40;99018.75;;;14.01
69186;BMP280;56298;49.246;9.410;2023-02-22T16:03:08;99019.50;;;13.91
69186;BMP280;56298;49.246;9.410;2023-02-22T16:08:34;99011.63;;;13.93